sensor_id;sensor_type;location;lat;lon;timestamp;pressure;altitude;pressure_sealevel;temperature;humidity
79269;BME280;68714;48.586;7.772;2023-04-06T00:00:36;100172.25;;;6.87;38.63
79269;BME280;68714;48.586;7.772;2023-04-06T00:03:01;100158.31;;;6.85;39.33
79269;BME280;68714;48.586;7.772;2023-04-06T00:05:28;100165.28;;;6.86;39.46
79269;BME280;68714;48.586;7.772;2023-04-06T00:07:57;100155.63;;;6.88;39.37
79269;BME280;68714;48.586;7.772;2023-04-06T00:10:23;100144.25;;;6.87;39.64
79269;BME280;68714;48.586;7.772;2023-04-06T00:12:48;100151.25;;;6.87;39.62
79269;BME280;68714;48.586;7.772;2023-04-06T00:15:13;100149.50;;;6.87;39.41
79269;BME280;68714;48.586;7.772;2023-04-06T00:17:39;100148.69;;;6.85;39.83
79269;BME280;68714;48.586;7.772;2023-04-06T00:20:05;100149.56;;;6.84;39.62
79269;BME280;68714;48.586;7.772;2023-04-06T00:22:32;100139.16;;;6.79;39.52
79269;BME280;68714;48.586;7.772;2023-04-06T00:24:57;100144.50;;;6.75;40.06
79269;BME280;68714;48.586;7.772;2023-04-06T00:27:23;100143.72;;;6.71;39.94
79269;BME280;68714;48.586;7.772;2023-04-06T00:29:49;100145.63;;;6.65;40.34
79269;BME280;68714;48.586;7.772;2023-04-06T00:32:14;100141.34;;;6.59;40.11
79269;BME280;68714;48.586;7.772;2023-04-06T00:34:39;100142.28;;;6.55;40.73
79269;BME280;68714;48.586;7.772;2023-04-06T00:37:05;100141.47;;;6.53;40.69
79269;BME280;68714;48.586;7.772;2023-04-06T00:39:30;100134.56;;;6.49;40.39
79269;BME280;68714;48.586;7.772;2023-04-06T00:41:56;100138.97;;;6.47;40.46
79269;BME280;68714;48.586;7.772;2023-04-06T00:44:22;100136.41;;;6.43;40.84
79269;BME280;68714;48.586;7.772;2023-04-06T00:46:48;100138.22;;;6.40;40.58
79269;BME280;68714;48.586;7.772;2023-04-06T00:49:13;100140.03;;;6.36;41.36
79269;BME280;68714;48.586;7.772;2023-04-06T00:51:39;100137.53;;;6.30;40.96
79269;BME280;68714;48.586;7.772;2023-04-06T00:54:05;100134.16;;;6.25;40.92
79269;BME280;68714;48.586;7.772;2023-04-06T00:56:31;100138.50;;;6.24;41.07
79269;BME280;68714;48.586;7.772;2023-04-06T00:58:56;100139.47;;;6.20;40.94
79269;BME280;68714;48.586;7.772;2023-04-06T01:01:23;100136.09;;;6.14;40.66
79269;BME280;68714;48.586;7.772;2023-04-06T01:03:49;100138.94;;;6.01;41.26
79269;BME280;68714;48.586;7.772;2023-04-06T01:06:15;100137.31;;;5.91;40.89
79269;BME280;68714;48.586;7.772;2023-04-06T01:08:41;100129.63;;;5.82;41.18
79269;BME280;68714;48.586;7.772;2023-04-06T01:11:08;100139.28;;;5.78;41.55
79269;BME280;68714;48.586;7.772;2023-04-06T01:13:34;100132.44;;;5.71;41.67
79269;BME280;68714;48.586;7.772;2023-04-06T01:15:59;100134.28;;;5.64;42.26
79269;BME280;68714;48.586;7.772;2023-04-06T01:18:26;100132.63;;;5.59;42.69
79269;BME280;68714;48.586;7.772;2023-04-06T01:20:52;100126.59;;;5.55;42.64
79269;BME280;68714;48.586;7.772;2023-04-06T01:23:17;100126.66;;;5.50;43.12
79269;BME280;68714;48.586;7.772;2023-04-06T01:25:43;100124.88;;;5.52;43.22
79269;BME280;68714;48.586;7.772;2023-04-06T01:28:08;100124.88;;;5.52;43.25
79269;BME280;68714;48.586;7.772;2023-04-06T01:30:34;100124.06;;;5.49;43.20
79269;BME280;68714;48.586;7.772;2023-04-06T01:33:01;100116.28;;;5.44;43.23
79269;BME280;68714;48.586;7.772;2023-04-06T01:35:27;100118.91;;;5.44;43.60
79269;BME280;68714;48.586;7.772;2023-04-06T01:37:53;100117.06;;;5.49;43.71
79269;BME280;68714;48.586;7.772;2023-04-06T01:40:19;100116.13;;;5.55;44.04
79269;BME280;68714;48.586;7.772;2023-04-06T01:42:44;100114.28;;;5.60;43.44
79269;BME280;68714;48.586;7.772;2023-04-06T01:45:10;100115.09;;;5.64;43.41
79269;BME280;68714;48.586;7.772;2023-04-06T01:47:35;100121.97;;;5.69;43.52
79269;BME280;68714;48.586;7.772;2023-04-06T01:50:01;100119.31;;;5.72;44.06
79269;BME280;68714;48.586;7.772;2023-04-06T01:52:30;100118.41;;;5.75;44.02
79269;BME280;68714;48.586;7.772;2023-04-06T01:54:55;100114.94;;;5.75;43.79
79269;BME280;68714;48.586;7.772;2023-04-06T01:57:21;100120.13;;;5.76;44.02
79269;BME280;68714;48.586;7.772;2023-04-06T01:59:47;100117.53;;;5.76;44.12
79269;BME280;68714;48.586;7.772;2023-04-06T02:02:12;100108.00;;;5.70;44.36
79269;BME280;68714;48.586;7.772;2023-04-06T02:04:39;100111.59;;;5.63;44.34
79269;BME280;68714;48.586;7.772;2023-04-06T02:07:08;100112.53;;;5.61;44.22
79269;BME280;68714;48.586;7.772;2023-04-06T02:09:34;100105.63;;;5.57;44.52
79269;BME280;68714;48.586;7.772;2023-04-06T02:12:01;100117.03;;;5.51;44.65
79269;BME280;68714;48.586;7.772;2023-04-06T02:14:27;100114.47;;;5.48;44.37
79269;BME280;68714;48.586;7.772;2023-04-06T02:16:53;100112.81;;;5.44;45.01
79269;BME280;68714;48.586;7.772;2023-04-06T02:19:18;100110.31;;;5.36;44.89
79269;BME280;68714;48.586;7.772;2023-04-06T02:21:44;100102.53;;;5.31;44.74
79269;BME280;68714;48.586;7.772;2023-04-06T02:24:09;100106.88;;;5.31;44.82
79269;BME280;68714;48.586;7.772;2023-04-06T02:26:35;100105.22;;;5.28;44.93
79269;BME280;68714;48.586;7.772;2023-04-06T02:29:02;100106.97;;;5.26;44.48
79269;BME280;68714;48.586;7.772;2023-04-06T02:31:28;100100.03;;;5.22;44.81
79269;BME280;68714;48.586;7.772;2023-04-06T02:33:53;100103.56;;;5.21;44.81
79269;BME280;68714;48.586;7.772;2023-04-06T02:36:19;100107.97;;;5.17;45.14
79269;BME280;68714;48.586;7.772;2023-04-06T02:38:44;100098.44;;;5.13;44.67
79269;BME280;68714;48.586;7.772;2023-04-06T02:41:10;100094.13;;;5.09;45.15
79269;BME280;68714;48.586;7.772;2023-04-06T02:43:35;100090.69;;;5.07;45.25
79269;BME280;68714;48.586;7.772;2023-04-06T02:46:01;100097.69;;;5.05;44.89
79269;BME280;68714;48.586;7.772;2023-04-06T02:48:26;100090.69;;;5.07;45.09
79269;BME280;68714;48.586;7.772;2023-04-06T02:50:52;100091.47;;;5.12;44.92
79269;BME280;68714;48.586;7.772;2023-04-06T02:53:17;100094.03;;;5.17;45.01
79269;BME280;68714;48.586;7.772;2023-04-06T02:55:42;100087.00;;;5.19;44.96
79269;BME280;68714;48.586;7.772;2023-04-06T02:58:08;100093.97;;;5.20;45.03
79269;BME280;68714;48.586;7.772;2023-04-06T03:00:33;100090.56;;;5.16;44.79
79269;BME280;68714;48.586;7.772;2023-04-06T03:02:59;100095.78;;;5.16;45.23
79269;BME280;68714;48.586;7.772;2023-04-06T03:05:24;100091.38;;;5.18;45.38
79269;BME280;68714;48.586;7.772;2023-04-06T03:07:50;100091.38;;;5.18;45.08
79269;BME280;68714;48.586;7.772;2023-04-06T03:10:15;100090.56;;;5.15;45.16
79269;BME280;68714;48.586;7.772;2023-04-06T03:12:41;100088.91;;;5.09;45.53
79269;BME280;68714;48.586;7.772;2023-04-06T03:15:07;100088.09;;;5.06;45.64
79269;BME280;68714;48.586;7.772;2023-04-06T03:17:33;100088.94;;;5.06;45.72
79269;BME280;68714;48.586;7.772;2023-04-06T03:19:58;100093.31;;;5.07;45.76
79269;BME280;68714;48.586;7.772;2023-04-06T03:22:24;100089.78;;;5.08;45.82
79269;BME280;68714;48.586;7.772;2023-04-06T03:24:49;100093.25;;;5.12;45.91
79269;BME280;68714;48.586;7.772;2023-04-06T03:27:15;100104.59;;;5.09;45.86
79269;BME280;68714;48.586;7.772;2023-04-06T03:29:41;100102.94;;;5.04;46.22
79269;BME280;68714;48.586;7.772;2023-04-06T03:32:06;100101.31;;;4.96;46.48
79269;BME280;68714;48.586;7.772;2023-04-06T03:34:32;100109.25;;;4.90;46.58
79269;BME280;68714;48.586;7.772;2023-04-06T03:36:57;100111.06;;;4.82;46.31
79269;BME280;68714;48.586;7.772;2023-04-06T03:39:22;100106.81;;;4.76;46.98
79269;BME280;68714;48.586;7.772;2023-04-06T03:41:48;100117.28;;;4.75;46.40
79269;BME280;68714;48.586;7.772;2023-04-06T03:44:13;100110.28;;;4.77;46.88
79269;BME280;68714;48.586;7.772;2023-04-06T03:46:40;100113.72;;;4.80;46.76
79269;BME280;68714;48.586;7.772;2023-04-06T03:49:05;100119.78;;;4.84;46.63
79269;BME280;68714;48.586;7.772;2023-04-06T03:51:30;100116.25;;;4.85;46.75
79269;BME280;68714;48.586;7.772;2023-04-06T03:53:56;100118.09;;;4.78;46.89
79269;BME280;68714;48.586;7.772;2023-04-06T03:56:21;100125.25;;;4.66;46.70
79269;BME280;68714;48.586;7.772;2023-04-06T03:58:47;100124.47;;;4.57;46.76
79269;BME280;68714;48.586;7.772;2023-04-06T04:01:18;100128.84;;;4.55;47.00
79269;BME280;68714;48.586;7.772;2023-04-06T04:03:44;100131.50;;;4.52;47.18
79269;BME280;68714;48.586;7.772;2023-04-06T04:06:11;100126.34;;;4.46;47.04
79269;BME280;68714;48.586;7.772;2023-04-06T04:08:36;100133.38;;;4.41;47.06
79269;BME280;68714;48.586;7.772;2023-04-06T04:11:02;100123.03;;;4.32;47.20
79269;BME280;68714;48.586;7.772;2023-04-06T04:13:27;100130.91;;;4.27;47.33
79269;BME280;68714;48.586;7.772;2023-04-06T04:15:53;100135.31;;;4.23;47.47
79269;BME280;68714;48.586;7.772;2023-04-06T04:18:19;100135.31;;;4.23;47.88
79269;BME280;68714;48.586;7.772;2023-04-06T04:20:44;100134.47;;;4.21;47.55
79269;BME280;68714;48.586;7.772;2023-04-06T04:23:10;100144.03;;;4.21;47.98
79269;BME280;68714;48.586;7.772;2023-04-06T04:25:35;100143.19;;;4.20;47.64
79269;BME280;68714;48.586;7.772;2023-04-06T04:28:01;100151.84;;;4.24;47.91
79269;BME280;68714;48.586;7.772;2023-04-06T04:30:27;100142.28;;;4.24;47.63
79269;BME280;68714;48.586;7.772;2023-04-06T04:32:52;100143.09;;;4.28;47.86
79269;BME280;68714;48.586;7.772;2023-04-06T04:35:18;100147.47;;;4.27;47.56
79269;BME280;68714;48.586;7.772;2023-04-06T04:37:43;100146.63;;;4.22;48.03
79269;BME280;68714;48.586;7.772;2023-04-06T04:40:09;100145.75;;;4.23;47.86
79269;BME280;68714;48.586;7.772;2023-04-06T04:42:35;100146.59;;;4.27;47.97
79269;BME280;68714;48.586;7.772;2023-04-06T04:45:01;100147.44;;;4.31;47.86
79269;BME280;68714;48.586;7.772;2023-04-06T04:47:26;100150.84;;;4.36;47.76
79269;BME280;68714;48.586;7.772;2023-04-06T04:49:52;100157.81;;;4.37;47.73
79269;BME280;68714;48.586;7.772;2023-04-06T04:52:17;100155.19;;;4.38;47.87
79269;BME280;68714;48.586;7.772;2023-04-06T04:54:43;100154.31;;;4.38;47.99
79269;BME280;68714;48.586;7.772;2023-04-06T04:57:08;100160.44;;;4.37;47.96
79269;BME280;68714;48.586;7.772;2023-04-06T04:59:34;100150.91;;;4.31;47.65
79269;BME280;68714;48.586;7.772;2023-04-06T05:02:00;100160.56;;;4.24;47.43
79269;BME280;68714;48.586;7.772;2023-04-06T05:04:26;100159.75;;;4.16;47.86
79269;BME280;68714;48.586;7.772;2023-04-06T05:07:10;100154.59;;;4.08;47.79
79269;BME280;68714;48.586;7.772;2023-04-06T05:09:36;100159.84;;;4.07;47.93
79269;BME280;68714;48.586;7.772;2023-04-06T05:12:01;100160.78;;;4.01;47.62
79269;BME280;68714;48.586;7.772;2023-04-06T05:14:28;100159.09;;;3.96;47.29
79269;BME280;68714;48.586;7.772;2023-04-06T05:16:53;100154.81;;;3.88;47.22
79269;BME280;68714;48.586;7.772;2023-04-06T05:19:19;100156.59;;;3.85;47.65
79269;BME280;68714;48.586;7.772;2023-04-06T05:21:46;100154.88;;;3.81;47.65
79269;BME280;68714;48.586;7.772;2023-04-06T05:24:12;100149.69;;;3.78;47.66
79269;BME280;68714;48.586;7.772;2023-04-06T05:26:37;100156.66;;;3.77;47.54
79269;BME280;68714;48.586;7.772;2023-04-06T05:29:03;100165.34;;;3.76;47.43
79269;BME280;68714;48.586;7.772;2023-04-06T05:31:29;100161.88;;;3.77;47.71
79269;BME280;68714;48.586;7.772;2023-04-06T05:33:56;100157.53;;;3.76;47.68
79269;BME280;68714;48.586;7.772;2023-04-06T05:36:22;100161.00;;;3.73;48.08
79269;BME280;68714;48.586;7.772;2023-04-06T05:38:48;100158.38;;;3.75;47.90
79269;BME280;68714;48.586;7.772;2023-04-06T05:41:15;100167.09;;;3.77;47.85
79269;BME280;68714;48.586;7.772;2023-04-06T05:43:41;100165.31;;;3.79;48.08
79269;BME280;68714;48.586;7.772;2023-04-06T05:46:07;100167.09;;;3.77;48.08
79269;BME280;68714;48.586;7.772;2023-04-06T05:48:33;100164.56;;;3.68;48.16
79269;BME280;68714;48.586;7.772;2023-04-06T05:50:59;100174.19;;;3.58;48.22
79269;BME280;68714;48.586;7.772;2023-04-06T05:53:27;100164.66;;;3.54;48.22
79269;BME280;68714;48.586;7.772;2023-04-06T05:55:54;100163.78;;;3.53;48.26
79269;BME280;68714;48.586;7.772;2023-04-06T05:58:20;100173.31;;;3.61;48.39
79269;BME280;68714;48.586;7.772;2023-04-06T06:00:45;100172.41;;;3.65;48.31
79269;BME280;68714;48.586;7.772;2023-04-06T06:03:12;100172.34;;;3.72;48.13
79269;BME280;68714;48.586;7.772;2023-04-06T06:05:40;100176.66;;;3.75;47.73
79269;BME280;68714;48.586;7.772;2023-04-06T06:08:05;100176.66;;;3.75;48.25
79269;BME280;68714;48.586;7.772;2023-04-06T08:26:38;100167.19;;;8.62;43.85
79269;BME280;68714;48.586;7.772;2023-04-06T08:29:04;100160.00;;;8.67;43.23
79269;BME280;68714;48.586;7.772;2023-04-06T08:31:33;100161.66;;;8.71;43.33
79269;BME280;68714;48.586;7.772;2023-04-06T08:34:00;100170.13;;;8.81;43.23
79269;BME280;68714;48.586;7.772;2023-04-06T08:36:25;100170.81;;;8.88;43.24
79269;BME280;68714;48.586;7.772;2023-04-06T08:38:51;100165.22;;;8.99;42.88
79269;BME280;68714;48.586;7.772;2023-04-06T08:41:18;100174.75;;;9.03;42.72
79269;BME280;68714;48.586;7.772;2023-04-06T08:43:47;100168.56;;;9.05;42.54
79269;BME280;68714;48.586;7.772;2023-04-06T08:46:13;100168.31;;;9.13;42.68
79269;BME280;68714;48.586;7.772;2023-04-06T08:48:40;100169.91;;;9.19;42.62
79269;BME280;68714;48.586;7.772;2023-04-06T08:51:06;100160.19;;;9.21;42.26
79269;BME280;68714;48.586;7.772;2023-04-06T08:53:32;100164.38;;;9.28;42.43
79269;BME280;68714;48.586;7.772;2023-04-06T08:55:59;100167.47;;;9.41;42.47
79269;BME280;68714;48.586;7.772;2023-04-06T08:58:28;100162.63;;;9.55;42.26
79269;BME280;68714;48.586;7.772;2023-04-06T09:00:54;100165.59;;;9.73;42.12
79269;BME280;68714;48.586;7.772;2023-04-06T09:03:20;100167.47;;;9.96;42.01
79269;BME280;68714;48.586;7.772;2023-04-06T09:05:46;100161.25;;;10.24;41.89
79269;BME280;68714;48.586;7.772;2023-04-06T09:08:12;100150.50;;;10.55;41.62
79269;BME280;68714;48.586;7.772;2023-04-06T09:10:42;100156.59;;;10.81;41.17
79269;BME280;68714;48.586;7.772;2023-04-06T09:13:08;100154.69;;;11.08;41.03
79269;BME280;68714;48.586;7.772;2023-04-06T09:15:34;100162.78;;;11.27;40.44
79269;BME280;68714;48.586;7.772;2023-04-06T09:18:00;100159.72;;;11.38;39.95
79269;BME280;68714;48.586;7.772;2023-04-06T09:20:26;100154.13;;;11.46;40.13
79269;BME280;68714;48.586;7.772;2023-04-06T09:22:53;100149.38;;;11.54;39.95
79269;BME280;68714;48.586;7.772;2023-04-06T09:25:21;100155.56;;;11.53;39.59
79269;BME280;68714;48.586;7.772;2023-04-06T09:27:48;100145.88;;;11.53;39.49
79269;BME280;68714;48.586;7.772;2023-04-06T09:30:15;100148.34;;;11.58;39.72
79269;BME280;68714;48.586;7.772;2023-04-06T09:32:49;100144.63;;;11.62;39.65
79269;BME280;68714;48.586;7.772;2023-04-06T09:35:16;100139.84;;;11.72;39.57
79269;BME280;68714;48.586;7.772;2023-04-06T09:37:44;100143.00;;;11.80;39.43
79269;BME280;68714;48.586;7.772;2023-04-06T09:40:11;100147.97;;;11.88;39.01
79269;BME280;68714;48.586;7.772;2023-04-06T09:42:36;100148.63;;;11.94;38.73
79269;BME280;68714;48.586;7.772;2023-04-06T09:45:02;100150.97;;;12.02;38.48
79269;BME280;68714;48.586;7.772;2023-04-06T09:47:32;100151.47;;;12.10;38.13
79269;BME280;68714;48.586;7.772;2023-04-06T09:50:00;100147.66;;;12.18;38.22
79269;BME280;68714;48.586;7.772;2023-04-06T09:52:33;100146.38;;;12.26;38.01
79269;BME280;68714;48.586;7.772;2023-04-06T09:55:03;100148.56;;;12.37;37.61
79269;BME280;68714;48.586;7.772;2023-04-06T09:58:01;100138.50;;;12.45;36.69
79269;BME280;68714;48.586;7.772;2023-04-06T10:00:32;100144.97;;;12.59;37.88
79269;BME280;68714;48.586;7.772;2023-04-06T10:03:20;100132.94;;;12.71;36.99
79269;BME280;68714;48.586;7.772;2023-04-06T10:05:55;100126.72;;;12.91;37.05
79269;BME280;68714;48.586;7.772;2023-04-06T10:08:25;100132.19;;;13.07;36.61
79269;BME280;68714;48.586;7.772;2023-04-06T10:10:53;100129.97;;;13.16;36.55
79269;BME280;68714;48.586;7.772;2023-04-06T10:13:19;100132.31;;;13.23;36.20
79269;BME280;68714;48.586;7.772;2023-04-06T10:15:45;100132.91;;;13.29;36.02
79269;BME280;68714;48.586;7.772;2023-04-06T10:18:11;100123.81;;;13.35;35.81
79269;BME280;68714;48.586;7.772;2023-04-06T10:21:04;100127.44;;;13.51;35.57
79269;BME280;68714;48.586;7.772;2023-04-06T10:23:35;100125.84;;;13.66;35.11
79269;BME280;68714;48.586;7.772;2023-04-06T10:26:02;100124.19;;;13.81;35.39
79269;BME280;68714;48.586;7.772;2023-04-06T10:28:33;100120.06;;;13.93;35.03
79269;BME280;68714;48.586;7.772;2023-04-06T10:31:01;100111.38;;;14.07;34.77
79269;BME280;68714;48.586;7.772;2023-04-06T10:33:27;100114.69;;;14.12;33.99
79269;BME280;68714;48.586;7.772;2023-04-06T10:35:53;100104.06;;;14.12;34.60
79269;BME280;68714;48.586;7.772;2023-04-06T10:38:20;100112.47;;;14.20;34.42
79269;BME280;68714;48.586;7.772;2023-04-06T10:40:47;100110.13;;;14.32;34.17
79269;BME280;68714;48.586;7.772;2023-04-06T10:43:18;100105.03;;;14.44;33.80
79269;BME280;68714;48.586;7.772;2023-04-06T10:45:44;100112.13;;;14.61;33.62
79269;BME280;68714;48.586;7.772;2023-04-06T10:48:17;100101.34;;;14.80;32.87
79269;BME280;68714;48.586;7.772;2023-04-06T10:50:48;100099.56;;;14.97;33.00
79269;BME280;68714;48.586;7.772;2023-04-06T10:53:24;100097.88;;;15.12;32.10
79269;BME280;68714;48.586;7.772;2023-04-06T10:55:52;100093.97;;;15.33;32.59
79269;BME280;68714;48.586;7.772;2023-04-06T10:58:18;100088.72;;;15.48;32.68
79269;BME280;68714;48.586;7.772;2023-04-06T11:00:49;100088.78;;;15.62;32.42
79269;BME280;68714;48.586;7.772;2023-04-06T11:03:15;100091.94;;;15.85;32.51
79269;BME280;68714;48.586;7.772;2023-04-06T11:05:48;100083.88;;;16.01;32.04
79269;BME280;68714;48.586;7.772;2023-04-06T11:08:32;100084.09;;;16.12;29.65
79269;BME280;68714;48.586;7.772;2023-04-06T11:16:25;100083.56;;;16.36;30.66
79269;BME280;68714;48.586;7.772;2023-04-06T11:18:53;100083.81;;;16.46;31.19
79269;BME280;68714;48.586;7.772;2023-04-06T11:21:30;100081.84;;;16.49;30.98
79269;BME280;68714;48.586;7.772;2023-04-06T11:24:07;100080.22;;;16.47;31.09
79269;BME280;68714;48.586;7.772;2023-04-06T11:26:58;100079.56;;;16.57;30.97
79269;BME280;68714;48.586;7.772;2023-04-06T11:29:26;100062.91;;;16.54;30.46
79269;BME280;68714;48.586;7.772;2023-04-06T11:31:57;100066.13;;;16.45;30.62
79269;BME280;68714;48.586;7.772;2023-04-06T11:34:24;100062.06;;;16.39;30.70
79269;BME280;68714;48.586;7.772;2023-04-06T11:37:01;100057.00;;;16.49;29.47
79269;BME280;68714;48.586;7.772;2023-04-06T11:39:28;100052.06;;;16.57;30.05
79269;BME280;68714;48.586;7.772;2023-04-06T11:41:57;100050.53;;;16.53;29.42
79269;BME280;68714;48.586;7.772;2023-04-06T11:44:39;100052.91;;;16.43;28.76
79269;BME280;68714;48.586;7.772;2023-04-06T11:47:10;100050.06;;;16.46;29.65
79269;BME280;68714;48.586;7.772;2023-04-06T11:49:40;100055.56;;;16.57;29.96
79269;BME280;68714;48.586;7.772;2023-04-06T11:52:27;100060.25;;;16.54;25.08
79269;BME280;68714;48.586;7.772;2023-04-06T11:54:53;100052.81;;;16.45;29.13
79269;BME280;68714;48.586;7.772;2023-04-06T11:57:21;100056.03;;;16.35;29.16
79269;BME280;68714;48.586;7.772;2023-04-06T11:59:48;100046.66;;;16.30;29.38
79269;BME280;68714;48.586;7.772;2023-04-06T12:02:14;100040.75;;;16.39;29.70
79269;BME280;68714;48.586;7.772;2023-04-06T12:04:40;100032.25;;;16.61;29.60
79269;BME280;68714;48.586;7.772;2023-04-06T12:07:05;100028.09;;;16.84;29.34
79269;BME280;68714;48.586;7.772;2023-04-06T12:09:31;100024.56;;;16.98;29.21
79269;BME280;68714;48.586;7.772;2023-04-06T12:11:56;100029.41;;;17.06;29.00
79269;BME280;68714;48.586;7.772;2023-04-06T12:14:22;100029.19;;;17.09;28.95
79269;BME280;68714;48.586;7.772;2023-04-06T12:16:49;100022.19;;;17.08;28.67
79269;BME280;68714;48.586;7.772;2023-04-06T12:19:15;100027.22;;;17.13;28.80
79269;BME280;68714;48.586;7.772;2023-04-06T12:21:40;100024.25;;;17.17;28.47
79269;BME280;68714;48.586;7.772;2023-04-06T12:24:06;100023.13;;;17.07;28.07
79269;BME280;68714;48.586;7.772;2023-04-06T12:26:32;100021.56;;;16.90;28.52
79269;BME280;68714;48.586;7.772;2023-04-06T12:28:58;100023.28;;;16.91;28.80
79269;BME280;68714;48.586;7.772;2023-04-06T12:31:37;100018.19;;;17.01;28.51
79269;BME280;68714;48.586;7.772;2023-04-06T12:34:04;100017.38;;;17.13;28.53
79269;BME280;68714;48.586;7.772;2023-04-06T12:36:29;100018.50;;;17.23;28.57
79269;BME280;68714;48.586;7.772;2023-04-06T12:38:56;100011.44;;;17.22;28.26
79269;BME280;68714;48.586;7.772;2023-04-06T12:41:21;100015.97;;;17.07;28.09
79269;BME280;68714;48.586;7.772;2023-04-06T12:43:48;100013.25;;;16.94;28.33
79269;BME280;68714;48.586;7.772;2023-04-06T12:46:15;100010.69;;;16.93;28.34
79269;BME280;68714;48.586;7.772;2023-04-06T12:48:40;100014.09;;;16.95;28.55
79269;BME280;68714;48.586;7.772;2023-04-06T12:51:06;100008.56;;;16.98;28.36
79269;BME280;68714;48.586;7.772;2023-04-06T12:53:33;100007.94;;;16.94;28.30
79269;BME280;68714;48.586;7.772;2023-04-06T12:55:59;100004.31;;;16.81;28.26
79269;BME280;68714;48.586;7.772;2023-04-06T12:58:25;99998.72;;;16.71;28.66
79269;BME280;68714;48.586;7.772;2023-04-06T13:00:55;99999.47;;;16.73;28.64
79269;BME280;68714;48.586;7.772;2023-04-06T13:03:22;99997.94;;;16.84;28.57
79269;BME280;68714;48.586;7.772;2023-04-06T13:05:51;99995.16;;;16.85;28.46
79269;BME280;68714;48.586;7.772;2023-04-06T13:08:19;99996.13;;;16.84;28.32
79269;BME280;68714;48.586;7.772;2023-04-06T13:10:49;99987.78;;;16.76;28.52
79269;BME280;68714;48.586;7.772;2023-04-06T13:13:15;99993.22;;;16.74;28.22
79269;BME280;68714;48.586;7.772;2023-04-06T13:15:42;99992.47;;;16.72;28.25
79269;BME280;68714;48.586;7.772;2023-04-06T13:18:09;99993.84;;;16.78;28.38
79269;BME280;68714;48.586;7.772;2023-04-06T13:20:35;99985.47;;;16.84;28.07
79269;BME280;68714;48.586;7.772;2023-04-06T13:23:01;99987.56;;;16.93;28.25
79269;BME280;68714;48.586;7.772;2023-04-06T13:25:26;99983.28;;;16.91;27.96
79269;BME280;68714;48.586;7.772;2023-04-06T13:27:53;99977.88;;;16.92;28.08
79269;BME280;68714;48.586;7.772;2023-04-06T13:30:18;99986.53;;;16.82;27.83
79269;BME280;68714;48.586;7.772;2023-04-06T13:32:44;99986.06;;;16.75;28.06
79269;BME280;68714;48.586;7.772;2023-04-06T13:35:09;99981.81;;;16.72;28.05
79269;BME280;68714;48.586;7.772;2023-04-06T13:37:35;99975.59;;;16.72;27.56
79269;BME280;68714;48.586;7.772;2023-04-06T13:40:02;99980.19;;;16.70;27.73
79269;BME280;68714;48.586;7.772;2023-04-06T13:42:28;99978.56;;;16.67;27.70
79269;BME280;68714;48.586;7.772;2023-04-06T13:44:54;99975.34;;;16.62;27.85
79269;BME280;68714;48.586;7.772;2023-04-06T13:47:20;99975.25;;;16.64;27.80
79269;BME280;68714;48.586;7.772;2023-04-06T13:49:46;99968.00;;;16.66;27.72
79269;BME280;68714;48.586;7.772;2023-04-06T13:52:12;99968.56;;;16.71;27.68
79269;BME280;68714;48.586;7.772;2023-04-06T13:54:38;99977.63;;;16.68;27.51
79269;BME280;68714;48.586;7.772;2023-04-06T13:57:03;99975.03;;;16.67;27.71
79269;BME280;68714;48.586;7.772;2023-04-06T13:59:36;99973.72;;;16.59;27.43
79269;BME280;68714;48.586;7.772;2023-04-06T14:02:02;99975.94;;;16.53;27.35
79269;BME280;68714;48.586;7.772;2023-04-06T14:04:29;99972.53;;;16.51;27.86
79269;BME280;68714;48.586;7.772;2023-04-06T14:06:54;99969.00;;;16.50;27.62
79269;BME280;68714;48.586;7.772;2023-04-06T14:09:20;99974.22;;;16.52;27.39
79269;BME280;68714;48.586;7.772;2023-04-06T14:11:46;99982.59;;;16.46;27.29
79269;BME280;68714;48.586;7.772;2023-04-06T14:14:11;99964.63;;;16.35;27.48
79269;BME280;68714;48.586;7.772;2023-04-06T14:16:36;99969.69;;;16.25;27.53
79269;BME280;68714;48.586;7.772;2023-04-06T14:19:02;99978.38;;;16.14;27.52
79269;BME280;68714;48.586;7.772;2023-04-06T14:21:27;99976.66;;;15.99;27.38
79269;BME280;68714;48.586;7.772;2023-04-06T14:23:53;99967.44;;;15.74;27.79
79269;BME280;68714;48.586;7.772;2023-04-06T14:26:18;99978.28;;;15.71;27.75
79269;BME280;68714;48.586;7.772;2023-04-06T14:28:44;99985.78;;;15.64;27.86
79269;BME280;68714;48.586;7.772;2023-04-06T14:31:13;99990.13;;;15.51;27.74
79269;BME280;68714;48.586;7.772;2023-04-06T14:33:40;99976.94;;;15.19;27.96
79269;BME280;68714;48.586;7.772;2023-04-06T14:36:06;99971.75;;;15.02;28.24
79269;BME280;68714;48.586;7.772;2023-04-06T14:38:32;99970.97;;;14.84;28.32
79269;BME280;68714;48.586;7.772;2023-04-06T14:40:58;99975.81;;;14.61;28.35
79269;BME280;68714;48.586;7.772;2023-04-06T14:43:23;99966.06;;;14.44;28.77
79269;BME280;68714;48.586;7.772;2023-04-06T14:45:49;99966.88;;;14.46;28.63
79269;BME280;68714;48.586;7.772;2023-04-06T14:48:15;99973.38;;;14.40;28.65
79269;BME280;68714;48.586;7.772;2023-04-06T14:50:51;99967.47;;;14.35;28.69
79269;BME280;68714;48.586;7.772;2023-04-06T14:53:18;99965.66;;;14.36;29.18
79269;BME280;68714;48.586;7.772;2023-04-06T14:55:44;99968.22;;;14.37;29.23
79269;BME280;68714;48.586;7.772;2023-04-06T14:58:09;99971.88;;;14.35;28.97
79269;BME280;68714;48.586;7.772;2023-04-06T15:00:37;99964.88;;;14.34;29.24
79269;BME280;68714;48.586;7.772;2023-04-06T15:03:03;99969.94;;;14.38;29.38
79269;BME280;68714;48.586;7.772;2023-04-06T15:05:29;99964.56;;;14.40;29.54
79269;BME280;68714;48.586;7.772;2023-04-06T15:07:56;99966.25;;;14.41;29.51
79269;BME280;68714;48.586;7.772;2023-04-06T15:10:21;99963.41;;;14.44;29.43
79269;BME280;68714;48.586;7.772;2023-04-06T15:12:47;99961.56;;;14.46;29.61
79269;BME280;68714;48.586;7.772;2023-04-06T15:15:12;99968.81;;;14.42;29.84
79269;BME280;68714;48.586;7.772;2023-04-06T15:17:37;99978.50;;;14.27;30.54